createdAt,value
2019-02-04T00:00:47.691Z,83.4
2019-02-04T00:01:48.397Z,83.49
2019-02-04T00:02:49.832Z,83.4
2019-02-04T00:03:51.104Z,84.34
2019-02-04T00:04:52.102Z,84.44
2019-02-04T00:05:52.520Z,83.87
2019-02-04T00:06:53.506Z,83.02
2019-02-04T00:07:54.333Z,82.54
2019-02-04T00:08:55.492Z,81.98
2019-02-04T00:09:56.470Z,82.26
2019-02-04T00:11:00.421Z,83.02
2019-02-04T00:12:00.846Z,82.83
2019-02-04T00:13:00.987Z,82.73
2019-02-04T00:14:01.883Z,82.83
2019-02-04T00:15:02.227Z,82.92
2019-02-04T00:16:02.950Z,82.92
2019-02-04T00:17:03.659Z,82.45
2019-02-04T00:18:04.536Z,81.13
2019-02-04T00:19:05.278Z,81.51
2019-02-04T00:20:06.433Z,81.03
2019-02-04T00:21:06.963Z,80.37
2019-02-04T00:22:07.415Z,80.37
2019-02-04T00:23:09.800Z,80.94
2019-02-04T00:24:09.782Z,80.27
2019-02-04T00:25:10.751Z,80.65
2019-02-04T00:26:11.577Z,80.27
2019-02-04T00:27:12.551Z,80.75
2019-02-04T00:28:12.935Z,80.27
2019-02-04T00:29:13.627Z,80.46
2019-02-04T00:30:14.874Z,80.56
2019-02-04T00:31:15.298Z,79.57
2019-02-04T00:32:17.679Z,77.78
2019-02-04T00:33:16.779Z,77.21
2019-02-04T00:34:17.305Z,76.55
2019-02-04T00:35:18.730Z,75.23
2019-02-04T00:36:19.575Z,73.14
2019-02-04T00:37:20.561Z,74.38
2019-02-04T00:38:21.431Z,74.85
2019-02-04T00:39:22.151Z,74
2019-02-04T00:40:23.523Z,73.71
2019-02-04T00:41:23.691Z,73.24
2019-02-04T00:42:23.897Z,73.14
2019-02-04T00:43:25.066Z,74.19
2019-02-04T00:44:25.783Z,75.13
2019-02-04T00:45:26.221Z,74.19
2019-02-04T00:46:27.228Z,73.71
2019-02-04T00:47:27.382Z,73.05
2019-02-04T00:48:28.517Z,71.54
2019-02-04T00:49:30.526Z,71.92
2019-02-04T00:50:30.237Z,72.77
2019-02-04T00:51:31.661Z,72.86
2019-02-04T00:52:32.644Z,72.77
2019-02-04T00:53:33.800Z,70.97
2019-02-04T00:54:34.565Z,69.93
2019-02-04T00:55:34.662Z,69.93
2019-02-04T00:56:35.170Z,69.84
2019-02-04T00:57:36.149Z,69.56
2019-02-04T00:58:37.286Z,69.09
2019-02-04T00:59:38.020Z,69.84
2019-02-04T01:00:39.176Z,70.21
2019-02-04T01:01:39.914Z,70.69
2019-02-04T01:02:40.462Z,70.97
2019-02-04T01:03:41.169Z,71.92
2019-02-04T01:04:41.609Z,71.73
2019-02-04T01:05:42.921Z,72.86
2019-02-04T01:06:44.117Z,73.24
2019-02-04T01:07:44.593Z,73.52
2019-02-04T01:08:45.471Z,74.95
2019-02-04T01:09:46.732Z,74.28
2019-02-04T01:10:47.703Z,75.04
2019-02-04T01:11:49.392Z,74.38
2019-02-04T01:12:49.536Z,76.07
2019-02-04T01:13:50.242Z,76.45
2019-02-04T01:14:50.931Z,77.02
2019-02-04T01:15:53.030Z,76.74
2019-02-04T01:17:05.627Z,75.7
2019-02-04T01:18:07.196Z,74
2019-02-04T01:19:06.915Z,72.58
2019-02-04T01:20:07.895Z,72.96
2019-02-04T01:21:08.601Z,72.39
2019-02-04T01:22:09.310Z,72.3
2019-02-04T01:23:10.287Z,72.96
2019-02-04T01:24:10.745Z,72.86
2019-02-04T01:25:11.727Z,74.09
2019-02-04T01:26:12.154Z,76.17
2019-02-04T01:27:12.571Z,77.78
2019-02-04T01:28:12.879Z,78.25
2019-02-04T01:29:14.131Z,78.34
2019-02-04T01:30:14.833Z,77.87
2019-02-04T01:31:15.538Z,77.59
2019-02-04T01:32:16.686Z,76.93
2019-02-04T01:33:17.381Z,76.64
2019-02-04T01:34:18.352Z,76.55
2019-02-04T01:35:19.919Z,76.36
2019-02-04T01:36:20.092Z,77.78
2019-02-04T01:37:20.521Z,77.02
2019-02-04T01:38:21.351Z,76.93
2019-02-04T01:39:22.045Z,76.55
2019-02-04T01:40:22.475Z,76.93
2019-02-04T01:41:22.988Z,78.91
2019-02-04T01:42:23.133Z,78.72
2019-02-04T01:43:23.859Z,77.78
2019-02-04T01:44:24.764Z,75.89
2019-02-04T01:45:25.280Z,74.85
2019-02-04T01:46:25.483Z,76.07
2019-02-04T01:47:26.287Z,77.02
2019-02-04T01:48:27.438Z,77.69
2019-02-04T01:49:28.130Z,78.63
2019-02-04T01:50:28.287Z,78.81
2019-02-04T01:51:29.532Z,78.06
2019-02-04T01:52:30.636Z,77.97
2019-02-04T01:53:30.479Z,77.59
2019-02-04T01:54:30.908Z,77.5
2019-02-04T01:55:32.061Z,76.64
2019-02-04T01:56:33.213Z,75.7
2019-02-04T01:57:33.648Z,75.89
2019-02-04T01:58:34.326Z,75.13
2019-02-04T01:59:35.472Z,74.57
2019-02-04T02:00:36.435Z,74.28
2019-02-04T02:01:38.116Z,75.04
2019-02-04T02:02:38.606Z,74.66
2019-02-04T02:03:39.580Z,74.85
2019-02-04T02:04:40.273Z,76.36
2019-02-04T02:05:40.976Z,77.87
2019-02-04T02:06:41.669Z,77.21
2019-02-04T02:07:42.366Z,76.36
2019-02-04T02:08:43.770Z,74.76
2019-02-04T02:09:44.043Z,74.19
2019-02-04T02:10:45.634Z,72.49
2019-02-04T02:11:45.527Z,71.73
2019-02-04T02:12:46.677Z,72.3
2019-02-04T02:13:47.088Z,73.05
2019-02-04T02:14:48.077Z,72.96
2019-02-04T02:15:48.046Z,73.14
2019-02-04T02:16:48.750Z,72.67
2019-02-04T02:17:48.831Z,73.33
2019-02-04T02:18:49.391Z,73.05
2019-02-04T02:19:49.643Z,73.14
2019-02-04T02:20:50.408Z,74.19
2019-02-04T02:21:51.095Z,74.95
2019-02-04T02:22:52.061Z,75.51
2019-02-04T02:23:52.333Z,75.51
2019-02-04T02:24:53.081Z,75.51
2019-02-04T02:25:53.794Z,77.97
2019-02-04T02:26:54.492Z,77.59
2019-02-04T02:27:55.588Z,77.78
2019-02-04T02:28:56.073Z,77.4
2019-02-04T02:29:57.052Z,76.83
2019-02-04T02:30:58.199Z,76.93
2019-02-04T02:31:58.654Z,78.63
2019-02-04T02:33:00.019Z,80.24
2019-02-04T02:34:00.879Z,80.24
2019-02-04T02:35:01.675Z,79.86
2019-02-04T02:36:02.376Z,78.91
2019-02-04T02:37:04.489Z,77.59
2019-02-04T02:38:04.303Z,77.87
2019-02-04T02:39:04.416Z,77.12
2019-02-04T02:40:05.118Z,77.31
2019-02-04T02:41:06.538Z,77.4
2019-02-04T02:42:07.229Z,77.59
2019-02-04T02:43:07.500Z,77.78
2019-02-04T02:44:08.795Z,78.67
2019-02-04T02:45:10.099Z,79.05
2019-02-04T02:46:09.794Z,78.53
2019-02-04T02:47:11.214Z,78.63
2019-02-04T02:48:12.196Z,78.44
2019-02-04T02:49:13.418Z,79.24
2019-02-04T02:50:13.575Z,79.14
2019-02-04T02:51:14.862Z,79.33
2019-02-04T02:52:15.828Z,80.27
2019-02-04T02:53:16.534Z,80.84
2019-02-04T02:54:17.942Z,82.64
2019-02-04T02:55:19.103Z,84.63
2019-02-04T02:56:19.614Z,85.1
2019-02-04T02:57:20.335Z,84.58
2019-02-04T02:58:21.324Z,83.36
2019-02-04T02:59:22.069Z,82.03
2019-02-04T03:00:22.767Z,82.31
2019-02-04T03:01:24.025Z,81.37
2019-02-04T03:02:24.756Z,81.09
2019-02-04T03:03:25.296Z,80.71
2019-02-04T03:04:25.719Z,79.48
2019-02-04T03:05:26.148Z,79.57
2019-02-04T03:06:27.302Z,79
2019-02-04T03:07:27.289Z,77.78
2019-02-04T03:08:27.712Z,76.74
2019-02-04T03:09:28.435Z,75.13
2019-02-04T03:10:29.142Z,73.33
2019-02-04T03:11:30.658Z,73.62
2019-02-04T03:12:30.558Z,75.13
2019-02-04T03:13:31.116Z,75.51
2019-02-04T03:14:31.684Z,76.17
2019-02-04T03:15:31.935Z,76.07
2019-02-04T03:16:32.752Z,75.7
2019-02-04T03:17:33.487Z,74.85
2019-02-04T03:18:34.900Z,74
2019-02-04T03:19:36.216Z,74
2019-02-04T03:20:38.538Z,74.95
2019-02-04T03:21:37.584Z,74.85
2019-02-04T03:22:38.318Z,76.64
2019-02-04T03:23:39.301Z,77.02
2019-02-04T03:24:40.573Z,76.55
2019-02-04T03:25:40.994Z,76.07
2019-02-04T03:26:42.086Z,75.23
2019-02-04T03:27:42.506Z,75.04
2019-02-04T03:28:43.773Z,75.23
2019-02-04T03:29:44.190Z,74.95
2019-02-04T03:30:45.753Z,74.38
2019-02-04T03:31:47.972Z,73.33
2019-02-04T03:32:48.578Z,72.67
2019-02-04T03:33:49.607Z,72.77
2019-02-04T03:34:50.360Z,72.96
2019-02-04T03:35:51.071Z,72.2
2019-02-04T03:36:51.783Z,72.49
2019-02-04T03:37:53.531Z,71.54
2019-02-04T03:38:53.916Z,71.41
2019-02-04T03:39:55.051Z,70.75
2019-02-04T03:40:55.746Z,70.12
2019-02-04T03:41:56.452Z,70.03
2019-02-04T03:42:58.024Z,69.84
2019-02-04T03:43:58.587Z,69.43
2019-02-04T03:44:59.593Z,68.61
2019-02-04T03:46:00.588Z,68.71
2019-02-04T03:47:02.154Z,69.56
2019-02-04T03:48:14.860Z,70.12
2019-02-04T03:49:16.940Z,69.46
2019-02-04T03:50:16.653Z,70.12
2019-02-04T03:51:17.219Z,70.69
2019-02-04T03:52:17.469Z,71.92
2019-02-04T03:53:18.162Z,72.58
2019-02-04T03:54:18.950Z,72.3
2019-02-04T03:55:19.646Z,71.45
2019-02-04T03:56:19.625Z,71.26
2019-02-04T03:57:20.317Z,70.59
2019-02-04T03:58:22.205Z,70.75
2019-02-04T03:59:22.115Z,70.59
2019-02-04T04:00:23.273Z,70.18
2019-02-04T04:01:23.969Z,70.37
2019-02-04T04:02:25.005Z,71.16
2019-02-04T04:03:24.984Z,71.35
2019-02-04T04:04:25.415Z,71.73
2019-02-04T04:05:26.389Z,71.54
2019-02-04T04:06:27.235Z,72.02
2019-02-04T04:07:28.488Z,71.83
2019-02-04T04:08:29.287Z,72.86
2019-02-04T04:09:29.903Z,72.77
2019-02-04T04:10:30.625Z,73.05
2019-02-04T04:11:31.611Z,72.17
2019-02-04T04:12:33.156Z,73.14
2019-02-04T04:13:33.155Z,74.19
2019-02-04T04:14:33.863Z,75.04
2019-02-04T04:15:35.161Z,75.51
2019-02-04T04:16:35.010Z,75.98
2019-02-04T04:17:36.067Z,76.36
2019-02-04T04:18:36.496Z,76.64
2019-02-04T04:19:36.788Z,75.89
2019-02-04T04:20:37.758Z,76.93
2019-02-04T04:21:38.729Z,76.93
2019-02-04T04:22:39.152Z,77.59
2019-02-04T04:23:39.564Z,77.12
2019-02-04T04:24:41.382Z,77.5
2019-02-04T04:25:40.975Z,77.5
2019-02-04T04:26:41.664Z,77.78
2019-02-04T04:27:41.927Z,77.5
2019-02-04T04:28:42.457Z,77.08
2019-02-04T04:29:42.741Z,77.78
2019-02-04T04:30:43.154Z,77.87
2019-02-04T04:31:44.132Z,78.72
2019-02-04T04:32:45.773Z,78.34
2019-02-04T04:33:45.787Z,79.38
2019-02-04T04:34:45.935Z,79.48
2019-02-04T04:35:46.645Z,79.38
2019-02-04T04:36:47.335Z,79.57
2019-02-04T04:37:48.699Z,79.19
2019-02-04T04:38:49.209Z,79.57
2019-02-04T04:39:49.717Z,79.29
2019-02-04T04:40:50.176Z,79.19
2019-02-04T04:41:50.895Z,79.48
2019-02-04T04:42:51.723Z,82.03
2019-02-04T04:43:51.991Z,82.5
2019-02-04T04:44:52.402Z,83.17
2019-02-04T04:45:53.543Z,83.54
2019-02-04T04:46:54.681Z,83.45
2019-02-04T04:47:55.655Z,83.73
2019-02-04T04:48:56.554Z,83.17
2019-02-04T04:49:57.984Z,83.45
2019-02-04T04:50:58.134Z,83.26
2019-02-04T04:51:58.561Z,83.64
2019-02-04T04:52:59.697Z,83.45
2019-02-04T04:54:00.249Z,82.22
2019-02-04T04:55:01.640Z,81.27
2019-02-04T04:56:01.923Z,81.46
2019-02-04T04:57:02.361Z,81.56
2019-02-04T04:58:03.080Z,81.74
2019-02-04T04:59:04.533Z,81.37
2019-02-04T05:00:04.392Z,81.27
2019-02-04T05:01:05.642Z,80.99
2019-02-04T05:02:05.627Z,81.84
2019-02-04T05:03:06.759Z,82.6
2019-02-04T05:04:07.917Z,83.36
2019-02-04T05:05:08.635Z,84.86
2019-02-04T05:06:09.063Z,85.05
2019-02-04T05:07:10.165Z,86
2019-02-04T05:08:10.547Z,86.57
2019-02-04T05:09:10.967Z,86.47
2019-02-04T05:10:11.527Z,86.38
2019-02-04T05:11:12.514Z,86
2019-02-04T05:12:13.074Z,85.34
2019-02-04T05:13:14.236Z,85.43
2019-02-04T05:14:15.382Z,85.62
2019-02-04T05:15:15.822Z,85.91
2019-02-04T05:16:17.745Z,86.29
2019-02-04T05:17:17.647Z,86.66
2019-02-04T05:18:18.619Z,86.57
2019-02-04T05:19:19.607Z,85.05
2019-02-04T05:20:19.719Z,85.91
2019-02-04T05:21:20.424Z,86.19
2019-02-04T05:22:21.112Z,86.57
2019-02-04T05:23:21.798Z,85.81
2019-02-04T05:24:22.523Z,86.57
2019-02-04T05:25:24.142Z,86.57
2019-02-04T05:26:24.019Z,86.85
2019-02-04T05:27:24.720Z,85.91
2019-02-04T05:28:25.423Z,84.77
2019-02-04T05:29:26.414Z,85.05
2019-02-04T05:30:26.672Z,84.3
2019-02-04T05:31:27.249Z,84.49
2019-02-04T05:32:28.219Z,84.39
2019-02-04T05:33:29.105Z,84.86
2019-02-04T05:34:29.532Z,84.58
2019-02-04T05:35:30.518Z,84.3
2019-02-04T05:36:30.995Z,84.01
2019-02-04T05:37:31.144Z,85.24
2019-02-04T05:38:31.557Z,85.53
2019-02-04T05:39:32.270Z,84.96
2019-02-04T05:40:32.838Z,84.3
2019-02-04T05:41:33.258Z,84.39
2019-02-04T05:42:36.612Z,84.11
2019-02-04T05:43:36.649Z,84.77
2019-02-04T05:44:37.070Z,84.3
2019-02-04T05:45:38.051Z,84.49
2019-02-04T05:46:38.465Z,83.64
2019-02-04T05:47:38.735Z,84.3
2019-02-04T05:48:51.725Z,83.64
2019-02-04T05:49:52.287Z,83.36
2019-02-04T05:50:52.983Z,83.17
2019-02-04T05:51:56.187Z,83.45
2019-02-04T05:52:58.091Z,85.24
2019-02-04T05:53:59.060Z,85.34
2019-02-04T05:55:00.325Z,84.77
2019-02-04T05:56:00.467Z,85.62
2019-02-04T05:57:01.715Z,86.1
2019-02-04T05:58:02.692Z,85.53
2019-02-04T05:59:03.407Z,84.2
2019-02-04T06:00:04.827Z,82.98
2019-02-04T06:01:04.971Z,82.69
2019-02-04T06:02:09.352Z,82.5
2019-02-04T06:03:06.512Z,82.88
2019-02-04T06:04:06.655Z,82.6
2019-02-04T06:05:07.658Z,82.12
2019-02-04T06:06:08.648Z,82.12
2019-02-04T06:07:09.066Z,81.74
2019-02-04T06:08:10.249Z,81.84
2019-02-04T06:09:10.406Z,82.6
2019-02-04T06:10:11.548Z,84.3
2019-02-04T06:11:11.559Z,84.68
2019-02-04T06:12:12.824Z,83.92
2019-02-04T06:13:13.077Z,83.26
2019-02-04T06:14:13.504Z,84.39
2019-02-04T06:15:14.206Z,84.77
2019-02-04T06:16:14.671Z,83.92
2019-02-04T06:17:15.365Z,84.68
2019-02-04T06:18:16.801Z,84.49
2019-02-04T06:19:18.223Z,83.36
2019-02-04T06:20:17.979Z,83.07
2019-02-04T06:21:18.227Z,83.17
2019-02-04T06:22:19.360Z,83.07
2019-02-04T06:23:20.074Z,82.79
2019-02-04T06:24:21.327Z,83.54
2019-02-04T06:25:22.680Z,84.68
2019-02-04T06:26:22.485Z,84.2
2019-02-04T06:27:23.629Z,83.26
2019-02-04T06:28:26.945Z,82.98
2019-02-04T06:29:27.818Z,83.17
2019-02-04T06:30:28.163Z,82.79
2019-02-04T06:31:28.766Z,82.98
2019-02-04T06:32:28.981Z,82.98
2019-02-04T06:33:29.679Z,82.31
2019-02-04T06:34:29.905Z,81.37
2019-02-04T06:35:30.340Z,81.93
2019-02-04T06:36:31.042Z,82.22
2019-02-04T06:37:32.992Z,82.31
2019-02-04T06:38:33.075Z,83.26
2019-02-04T06:39:33.213Z,83.36
2019-02-04T06:40:33.769Z,83.83
2019-02-04T06:41:34.783Z,83.17
2019-02-04T06:42:35.306Z,83.64
2019-02-04T06:43:35.724Z,84.3
2019-02-04T06:44:36.912Z,84.96
2019-02-04T06:45:39.108Z,85.62
2019-02-04T06:46:38.877Z,84.86
2019-02-04T06:47:40.308Z,85.15
2019-02-04T06:48:41.293Z,84.77
2019-02-04T06:49:42.286Z,83.83
2019-02-04T06:50:42.258Z,83.07
2019-02-04T06:51:43.289Z,82.22
2019-02-04T06:52:44.058Z,80.8
2019-02-04T06:53:45.052Z,80.71
2019-02-04T06:54:46.676Z,79.86
2019-02-04T06:55:47.502Z,78.72
2019-02-04T06:56:49.368Z,77.21
2019-02-04T06:57:49.668Z,76.7
2019-02-04T06:58:50.250Z,78.44
2019-02-04T06:59:50.662Z,78.81
2019-02-04T07:00:51.212Z,78.06
2019-02-04T07:01:52.588Z,77.26
2019-02-04T07:02:53.967Z,77.74
2019-02-04T07:03:54.428Z,76.7
2019-02-04T07:04:55.404Z,77.08
2019-02-04T07:05:55.846Z,76.7
2019-02-04T07:06:56.266Z,74.24
2019-02-04T07:07:59.882Z,75.32
2019-02-04T07:08:10.574Z,75.09
2019-02-04T07:09:10.475Z,73.96
2019-02-04T07:10:10.826Z,73.62
2019-02-04T07:11:12.277Z,73.24
2019-02-04T07:12:14.372Z,74.57
2019-02-04T07:13:13.915Z,75.98
2019-02-04T07:14:14.971Z,76.83
2019-02-04T07:15:16.521Z,78.06
2019-02-04T07:16:17.041Z,77.78
2019-02-04T07:17:18.033Z,78.06
2019-02-04T07:18:18.582Z,77.78
2019-02-04T07:19:25.619Z,77.97
2019-02-04T07:19:31.469Z,78.25
2019-02-04T07:20:31.796Z,78.72
2019-02-04T07:21:33.067Z,79.95
2019-02-04T07:22:33.772Z,81.37
2019-02-04T07:23:34.542Z,82.69
2019-02-04T07:24:49.687Z,82.98
2019-02-04T07:25:48.313Z,83.45
2019-02-04T07:26:48.529Z,83.64
2019-02-04T07:27:49.268Z,85.43
2019-02-04T07:28:50.254Z,85.72
2019-02-04T07:29:51.119Z,84.86
2019-02-04T07:30:52.093Z,83.92
2019-02-04T07:31:53.018Z,83.73
2019-02-04T07:32:53.711Z,83.36
2019-02-04T07:33:54.632Z,83.07
2019-02-04T07:34:55.275Z,83.64
2019-02-04T07:35:56.532Z,85.05
2019-02-04T07:36:57.393Z,85.24
2019-02-04T07:37:57.836Z,85.34
2019-02-04T07:38:58.268Z,85.91
2019-02-04T07:39:59.250Z,85.34
2019-02-04T07:41:00.230Z,83.92
2019-02-04T07:42:00.947Z,82.31
2019-02-04T07:43:02.463Z,81.65
2019-02-04T07:44:03.120Z,80.52
2019-02-04T07:45:04.104Z,80.62
2019-02-04T07:46:04.227Z,80.99
2019-02-04T07:47:05.166Z,82.03
2019-02-04T07:48:05.553Z,83.64
2019-02-04T07:49:06.048Z,84.49
2019-02-04T07:50:07.079Z,83.73
2019-02-04T07:51:07.939Z,82.79
2019-02-04T07:52:08.654Z,82.88
2019-02-04T07:53:09.532Z,83.73
2019-02-04T07:54:09.961Z,83.36
2019-02-04T07:55:10.894Z,81.37
2019-02-04T07:56:11.706Z,80.8
2019-02-04T07:57:12.206Z,80.99
2019-02-04T07:58:13.509Z,81.74
2019-02-04T07:59:13.682Z,81.56
2019-02-04T08:00:15.347Z,79.57
2019-02-04T08:01:15.987Z,81.74
2019-02-04T08:02:16.300Z,85.15
2019-02-04T08:03:16.753Z,86.1
2019-02-04T08:04:17.341Z,86.52
2019-02-04T08:05:17.808Z,85.1
2019-02-04T08:06:18.943Z,83.97
2019-02-04T08:07:19.089Z,85.19
2019-02-04T08:08:20.111Z,84.44
2019-02-04T08:09:20.852Z,87.08
2019-02-04T08:10:21.464Z,86.99
2019-02-04T08:11:22.555Z,88.22
2019-02-04T08:12:23.836Z,91.34
2019-02-04T08:13:24.547Z,91.15
2019-02-04T08:14:25.337Z,91.34
2019-02-04T08:15:26.326Z,92.94
2019-02-04T08:16:27.442Z,88.41
2019-02-04T08:17:28.753Z,92.66
2019-02-04T08:18:29.893Z,90.77
2019-02-04T08:19:30.605Z,91.53
2019-02-04T08:20:31.573Z,90.39
2019-02-04T08:21:32.341Z,91.15
2019-02-04T08:22:33.114Z,93.85
2019-02-04T08:23:34.112Z,94.23
2019-02-04T08:24:35.249Z,96.4
2019-02-04T08:25:35.896Z,96.31
2019-02-04T08:26:39.719Z,96.5
2019-02-04T08:26:49.416Z,96.07
2019-02-04T08:27:50.340Z,93.66
2019-02-04T08:28:51.350Z,94.18
2019-02-04T08:29:51.825Z,91.72
2019-02-04T08:30:52.811Z,90.58
2019-02-04T08:31:53.602Z,89.83
2019-02-04T08:32:54.056Z,90.77
2019-02-04T08:33:55.863Z,89.26
2019-02-04T08:34:56.364Z,89.17
2019-02-04T08:35:57.439Z,86.99
2019-02-04T08:36:58.696Z,86.61
2019-02-04T08:37:58.827Z,89.17
2019-02-04T08:38:59.679Z,89.73
2019-02-04T08:40:00.669Z,93.13
2019-02-04T08:41:00.936Z,94.79
2019-02-04T08:42:01.577Z,97.63
2019-02-04T08:43:02.999Z,99.99
2019-02-04T08:44:03.837Z,99.99
2019-02-04T08:45:05.144Z,99.99
2019-02-04T08:46:06.329Z,99.99
2019-02-04T08:47:07.656Z,99.99
2019-02-04T08:48:07.127Z,99.99
2019-02-04T08:49:07.884Z,99.99
2019-02-04T08:50:09.011Z,99.99
2019-02-04T08:51:10.354Z,99.99
2019-02-04T08:52:11.107Z,99.99
2019-02-04T08:53:11.864Z,99.99
2019-02-04T08:54:12.763Z,99.99
2019-02-04T08:55:13.853Z,99.99
2019-02-04T08:56:14.533Z,99.99
2019-02-04T08:57:14.903Z,99.99
2019-02-04T08:58:15.503Z,99.99
2019-02-04T08:59:17.319Z,99.99
2019-02-04T09:00:17.193Z,99.99
2019-02-04T09:01:17.694Z,99.99
2019-02-04T09:02:19.745Z,99.99
2019-02-04T09:03:19.704Z,99.99
2019-02-04T09:04:20.155Z,99.99
2019-02-04T09:05:20.941Z,99.99
2019-02-04T09:06:22.356Z,99.99
2019-02-04T09:07:22.474Z,99.99
2019-02-04T09:08:23.605Z,99.99
2019-02-04T09:09:25.075Z,99.52
2019-02-04T09:10:26.617Z,99.99
2019-02-04T09:11:26.393Z,99.99
2019-02-04T09:12:26.722Z,97.72
2019-02-04T09:13:27.788Z,95.74
2019-02-04T09:14:28.410Z,96.59
2019-02-04T09:15:28.898Z,99.33
2019-02-04T09:16:32.345Z,99.99
2019-02-04T09:16:44.434Z,99.99
2019-02-04T09:16:55.988Z,99.99
2019-02-04T09:17:07.178Z,99.99
2019-02-04T09:17:19.236Z,99.99
2019-02-04T09:18:18.604Z,97.63
2019-02-04T09:19:19.141Z,96.97
2019-02-04T09:20:19.891Z,97.72
2019-02-04T09:21:20.119Z,97.25
2019-02-04T09:22:21.584Z,98.39
2019-02-04T09:23:21.811Z,99.99
2019-02-04T09:24:22.580Z,99.99
2019-02-04T09:25:24.494Z,99.99
2019-02-04T09:26:24.480Z,99.99
2019-02-04T09:27:25.378Z,99.99
2019-02-04T09:28:25.278Z,99.99
2019-02-04T09:29:26.024Z,99.99
2019-02-04T09:30:26.290Z,99.99
2019-02-04T09:31:30.610Z,99.99
2019-02-04T09:31:40.045Z,99.99
2019-02-04T09:32:41.285Z,99.99
2019-02-04T09:33:41.813Z,99.99
2019-02-04T09:34:42.280Z,99.99
2019-02-04T09:35:44.072Z,99.99
2019-02-04T09:36:44.490Z,99.99
2019-02-04T09:37:44.773Z,99.99
2019-02-04T09:38:46.224Z,99.99
2019-02-04T09:39:47.314Z,99.99
2019-02-04T09:40:48.163Z,99.99
2019-02-04T09:41:48.635Z,99.99
2019-02-04T09:42:49.278Z,99.99
2019-02-04T09:43:49.867Z,99.99
2019-02-04T09:44:50.634Z,99.99
2019-02-04T09:45:51.996Z,99.99
2019-02-04T09:46:52.723Z,99.99
2019-02-04T09:47:53.500Z,99.99
2019-02-04T09:48:54.241Z,99.99
2019-02-04T09:49:54.948Z,99.99
2019-02-04T09:50:55.506Z,99.99
2019-02-04T09:51:56.831Z,99.99
2019-02-04T09:52:58.934Z,99.99
2019-02-04T09:53:59.588Z,99.99
2019-02-04T09:55:00.295Z,99.99
2019-02-04T09:56:01.303Z,99.99
2019-02-04T09:57:01.787Z,99.99
2019-02-04T09:58:03.126Z,99.99
2019-02-04T09:59:03.594Z,99.99
2019-02-04T10:00:04.309Z,99.99
2019-02-04T10:01:05.397Z,99.99
2019-02-04T10:02:10.510Z,99.99
2019-02-04T10:02:17.891Z,99.99
2019-02-04T10:03:19.822Z,99.99
2019-02-04T10:04:21.093Z,99.99
2019-02-04T10:05:21.964Z,99.99
2019-02-04T10:06:23.112Z,99.99
2019-02-04T10:07:23.847Z,99.99
2019-02-04T10:08:26.117Z,99.99
2019-02-04T10:08:39.006Z,99.99
2019-02-04T10:09:37.397Z,99.99
2019-02-04T10:10:37.822Z,99.99
2019-02-04T10:11:38.256Z,99.99
2019-02-04T10:12:38.514Z,99.99
2019-02-04T10:13:40.219Z,99.99
2019-02-04T10:14:41.061Z,99.99
2019-02-04T10:15:41.943Z,99.99
2019-02-04T10:16:41.798Z,99.99
2019-02-04T10:17:41.958Z,99.99
2019-02-04T10:18:43.763Z,99.99
2019-02-04T10:19:44.625Z,99.99
2019-02-04T10:20:45.895Z,99.99
2019-02-04T10:21:45.821Z,99.99
2019-02-04T10:22:48.101Z,99.99
2019-02-04T10:23:48.571Z,99.99
2019-02-04T10:24:49.228Z,99.99
2019-02-04T10:25:50.244Z,99.99
2019-02-04T10:26:50.761Z,99.99
2019-02-04T10:27:52.042Z,99.99
2019-02-04T10:28:52.075Z,99.99
2019-02-04T10:29:53.567Z,99.99
2019-02-04T10:30:53.159Z,99.99
2019-02-04T10:31:55.491Z,99.99
2019-02-04T10:32:55.530Z,99.99
2019-02-04T10:33:56.666Z,99.99
2019-02-04T10:34:56.676Z,99.99
2019-02-04T10:35:57.526Z,99.99
2019-02-04T10:36:58.527Z,98.73
2019-02-04T10:37:59.661Z,97.78
2019-02-04T10:39:00.211Z,93.41
2019-02-04T10:40:01.105Z,95.84
2019-02-04T10:41:01.683Z,96.22
2019-02-04T10:42:02.938Z,96.12
2019-02-04T10:43:03.215Z,95.22
2019-02-04T10:44:03.791Z,93.7
2019-02-04T10:45:04.929Z,91.09
2019-02-04T10:46:05.964Z,86.91
2019-02-04T10:47:06.478Z,86.05
2019-02-04T10:48:07.956Z,85.11
2019-02-04T10:49:09.887Z,85.2
2019-02-04T10:50:09.985Z,85.43
2019-02-04T10:51:10.559Z,83.62
2019-02-04T10:52:11.134Z,82.87
2019-02-04T10:53:11.723Z,84.1
2019-02-04T10:54:12.097Z,79.2
2019-02-04T10:55:12.584Z,77.36
2019-02-04T10:56:17.125Z,74.73
2019-02-04T10:57:14.942Z,70.54
2019-02-04T10:58:17.123Z,68.36
2019-02-04T10:59:17.441Z,68.17
2019-02-04T11:00:18.571Z,69.79
2019-02-04T11:01:19.199Z,72.64
2019-02-04T11:02:19.891Z,72.35
2019-02-04T11:03:22.135Z,72.64
2019-02-04T11:04:22.878Z,74.73
2019-02-04T11:05:23.514Z,72.77
2019-02-04T11:06:26.554Z,70.58
2019-02-04T11:07:28.114Z,69.88
2019-02-04T11:08:28.799Z,70.17
2019-02-04T11:09:29.902Z,71.88
2019-02-04T11:10:30.850Z,70.74
2019-02-04T11:11:31.475Z,69.41
2019-02-04T11:12:32.828Z,70.54
2019-02-04T11:13:33.913Z,69.56
2019-02-04T11:14:34.102Z,70.51
2019-02-04T11:15:34.917Z,70.61
2019-02-04T11:16:36.058Z,69.09
2019-02-04T11:17:38.640Z,70.89
2019-02-04T11:18:38.031Z,69.37
2019-02-04T11:19:38.174Z,70.13
2019-02-04T11:20:39.290Z,69.37
2019-02-04T11:21:39.684Z,68.9
2019-02-04T11:22:40.639Z,69.66
2019-02-04T11:23:41.152Z,70.42
2019-02-04T11:24:45.307Z,69.24
2019-02-04T11:24:55.513Z,68.8
2019-02-04T11:25:07.809Z,68.8
2019-02-04T11:25:20.253Z,68.71
2019-02-04T11:25:31.042Z,67.57
2019-02-04T11:25:41.437Z,67.72
2019-02-04T11:26:43.016Z,69.24
2019-02-04T11:27:46.165Z,68.67
2019-02-04T11:27:56.454Z,68.48
2019-02-04T11:28:59.093Z,72
2019-02-04T11:29:07.448Z,71.33
2019-02-04T11:30:08.318Z,69.43
2019-02-04T11:31:09.497Z,68.01
2019-02-04T11:32:10.259Z,68.39
2019-02-04T11:33:11.728Z,68.58
2019-02-04T11:34:12.637Z,68.86
2019-02-04T11:35:13.276Z,68.86
2019-02-04T11:36:13.797Z,70.1
2019-02-04T11:37:16.250Z,69.43
2019-02-04T11:37:29.371Z,70.29
2019-02-04T11:37:39.770Z,70.38
2019-02-04T11:38:41.795Z,71.43
2019-02-04T11:39:42.366Z,72.38
2019-02-04T11:40:47.091Z,72.19
2019-02-04T11:41:47.295Z,74.18
2019-02-04T11:41:59.147Z,73.99
2019-02-04T11:42:09.647Z,73.96
2019-02-04T11:43:10.529Z,74.94
2019-02-04T11:44:11.390Z,76.8
2019-02-04T11:45:11.588Z,78.03
2019-02-04T11:46:12.204Z,78.89
2019-02-04T11:47:12.645Z,80.51
2019-02-04T11:48:13.573Z,81.45
2019-02-04T11:49:14.471Z,83.07
2019-02-04T11:50:15.768Z,82.69
2019-02-04T11:51:16.207Z,84.21
2019-02-04T11:52:18.853Z,84.68
2019-02-04T11:52:29.814Z,84.78
2019-02-04T11:52:42.828Z,85.72
2019-02-04T11:53:34.685Z,85.82
2019-02-04T11:53:42.071Z,86.54
2019-02-04T11:54:41.941Z,86.96
2019-02-04T11:55:42.774Z,85.63
2019-02-04T11:56:45.846Z,86.16
2019-02-04T11:56:56.094Z,85.91
2019-02-04T11:57:56.992Z,86.35
2019-02-04T11:58:59.933Z,85.68
2019-02-04T11:59:09.437Z,85.87
2019-02-04T12:00:11.920Z,88.15
2019-02-04T12:01:11.662Z,88.06
2019-02-04T12:02:13.661Z,86.68
2019-02-04T12:03:13.823Z,88.67
2019-02-04T12:04:14.580Z,89.62
2019-02-04T12:05:16.208Z,93.51
2019-02-04T12:06:19.708Z,93.89
2019-02-04T12:07:19.183Z,93.7
2019-02-04T12:08:19.897Z,94.56
2019-02-04T12:09:21.050Z,95.51
2019-02-04T12:10:21.260Z,95.46
2019-02-04T12:11:22.054Z,94.6
2019-02-04T12:12:22.066Z,95.36
2019-02-04T12:13:23.263Z,95.46
2019-02-04T12:14:23.999Z,97.36
2019-02-04T12:15:25.149Z,98.68
2019-02-04T12:16:25.495Z,99.99
2019-02-04T12:17:26.797Z,99.99
2019-02-04T12:18:27.623Z,99.99
2019-02-04T12:19:28.729Z,99.99
2019-02-04T12:20:29.479Z,99.99
2019-02-04T12:21:29.983Z,99.99
2019-02-04T12:22:30.526Z,99.99
2019-02-04T12:23:30.720Z,99.99
2019-02-04T12:24:32.000Z,99.99
2019-02-04T12:25:33.766Z,99.99
2019-02-04T12:26:35.288Z,99.99
2019-02-04T12:27:35.599Z,99.99
2019-02-04T12:28:35.841Z,99.99
2019-02-04T12:29:36.315Z,99.99
2019-02-04T12:30:37.441Z,99.99
2019-02-04T12:31:37.189Z,99.73
2019-02-04T12:32:37.924Z,99.77
2019-02-04T12:33:39.038Z,97.69
2019-02-04T12:34:41.886Z,98.16
2019-02-04T12:35:40.943Z,99.44
2019-02-04T12:36:42.062Z,97.69
2019-02-04T12:37:42.967Z,95.6
2019-02-04T12:38:46.883Z,97.31
2019-02-04T12:39:48.174Z,98.68
2019-02-04T12:39:58.758Z,98.68
2019-02-04T12:40:59.986Z,99.54
2019-02-04T12:41:10.493Z,99.26
2019-02-04T12:42:11.059Z,99.91
2019-02-04T12:43:14.055Z,99.99
2019-02-04T12:43:24.291Z,99.99